sensor_id;sensor_type;location;lat;lon;timestamp;P1;durP1;ratioP1;P2;durP2;ratioP2
58528;SDS011;44322;52.968;5.816;2023-01-08T00:01:56;5.25;;;4.18;;
58528;SDS011;44322;52.968;5.816;2023-01-08T00:04:21;5.72;;;4.53;;
58528;SDS011;44322;52.968;5.816;2023-01-08T00:06:47;7.70;;;4.70;;
58528;SDS011;44322;52.968;5.816;2023-01-08T00:09:13;5.47;;;4.30;;
58528;SDS011;44322;52.968;5.816;2023-01-08T00:11:38;5.20;;;4.50;;
58528;SDS011;44322;52.968;5.816;2023-01-08T00:14:04;6.00;;;4.57;;
58528;SDS011;44322;52.968;5.816;2023-01-08T00:16:29;6.68;;;4.50;;
58528;SDS011;44322;52.968;5.816;2023-01-08T00:18:55;7.43;;;4.28;;
58528;SDS011;44322;52.968;5.816;2023-01-08T00:21:21;10.10;;;4.97;;
58528;SDS011;44322;52.968;5.816;2023-01-08T00:23:47;6.55;;;4.75;;
58528;SDS011;44322;52.968;5.816;2023-01-08T00:26:12;5.40;;;3.65;;
58528;SDS011;44322;52.968;5.816;2023-01-08T00:28:38;5.15;;;3.90;;
58528;SDS011;44322;52.968;5.816;2023-01-08T00:31:09;4.70;;;3.10;;
58528;SDS011;44322;52.968;5.816;2023-01-08T00:33:35;6.00;;;3.33;;
58528;SDS011;44322;52.968;5.816;2023-01-08T00:36:08;4.95;;;2.90;;
58528;SDS011;44322;52.968;5.816;2023-01-08T00:38:34;4.65;;;2.70;;
58528;SDS011;44322;52.968;5.816;2023-01-08T00:41:00;4.47;;;2.83;;
58528;SDS011;44322;52.968;5.816;2023-01-08T00:43:25;3.65;;;2.42;;
58528;SDS011;44322;52.968;5.816;2023-01-08T00:45:51;7.30;;;2.80;;
58528;SDS011;44322;52.968;5.816;2023-01-08T00:48:18;4.43;;;2.67;;
58528;SDS011;44322;52.968;5.816;2023-01-08T00:50:49;8.15;;;2.95;;
58528;SDS011;44322;52.968;5.816;2023-01-08T00:53:16;6.43;;;2.70;;
58528;SDS011;44322;52.968;5.816;2023-01-08T00:55:42;6.30;;;2.95;;
58528;SDS011;44322;52.968;5.816;2023-01-08T00:58:08;4.43;;;2.70;;
58528;SDS011;44322;52.968;5.816;2023-01-08T01:00:33;5.32;;;2.80;;
58528;SDS011;44322;52.968;5.816;2023-01-08T01:02:59;5.90;;;2.95;;
58528;SDS011;44322;52.968;5.816;2023-01-08T01:05:24;7.00;;;3.05;;
58528;SDS011;44322;52.968;5.816;2023-01-08T01:07:50;6.13;;;2.88;;
58528;SDS011;44322;52.968;5.816;2023-01-08T01:10:16;6.10;;;2.78;;
58528;SDS011;44322;52.968;5.816;2023-01-08T01:12:42;9.95;;;3.08;;
58528;SDS011;44322;52.968;5.816;2023-01-08T01:15:09;8.75;;;2.72;;
58528;SDS011;44322;52.968;5.816;2023-01-08T01:17:39;8.02;;;2.90;;
58528;SDS011;44322;52.968;5.816;2023-01-08T01:20:06;9.85;;;3.03;;
58528;SDS011;44322;52.968;5.816;2023-01-08T01:22:33;8.20;;;2.60;;
58528;SDS011;44322;52.968;5.816;2023-01-08T01:24:59;6.53;;;2.47;;
58528;SDS011;44322;52.968;5.816;2023-01-08T01:27:24;6.20;;;2.50;;
58528;SDS011;44322;52.968;5.816;2023-01-08T01:29:51;10.13;;;2.40;;
58528;SDS011;44322;52.968;5.816;2023-01-08T01:32:17;10.05;;;3.35;;
58528;SDS011;44322;52.968;5.816;2023-01-08T01:34:42;9.70;;;2.53;;
58528;SDS011;44322;52.968;5.816;2023-01-08T01:37:10;9.15;;;2.47;;
58528;SDS011;44322;52.968;5.816;2023-01-08T01:39:37;5.57;;;2.13;;
58528;SDS011;44322;52.968;5.816;2023-01-08T01:42:03;5.18;;;2.30;;
58528;SDS011;44322;52.968;5.816;2023-01-08T01:44:41;6.95;;;2.58;;
58528;SDS011;44322;52.968;5.816;2023-01-08T01:47:42;11.65;;;2.30;;
58528;SDS011;44322;52.968;5.816;2023-01-08T01:50:03;4.20;;;1.80;;
58528;SDS011;44322;52.968;5.816;2023-01-08T01:52:45;9.52;;;1.80;;
58528;SDS011;44322;52.968;5.816;2023-01-08T01:55:15;8.02;;;2.03;;
58528;SDS011;44322;52.968;5.816;2023-01-08T01:57:46;10.63;;;2.20;;
58528;SDS011;44322;52.968;5.816;2023-01-08T02:00:15;9.35;;;1.88;;
58528;SDS011;44322;52.968;5.816;2023-01-08T02:02:42;7.77;;;1.83;;
58528;SDS011;44322;52.968;5.816;2023-01-08T02:05:08;8.75;;;2.03;;
58528;SDS011;44322;52.968;5.816;2023-01-08T02:10:19;10.13;;;2.15;;
58528;SDS011;44322;52.968;5.816;2023-01-08T02:12:51;8.50;;;2.40;;
58528;SDS011;44322;52.968;5.816;2023-01-08T02:15:28;14.15;;;2.47;;
58528;SDS011;44322;52.968;5.816;2023-01-08T02:18:04;10.05;;;2.00;;
58528;SDS011;44322;52.968;5.816;2023-01-08T02:20:43;7.43;;;1.77;;
58528;SDS011;44322;52.968;5.816;2023-01-08T02:28:48;12.63;;;2.75;;
58528;SDS011;44322;52.968;5.816;2023-01-08T02:31:17;12.57;;;2.15;;
58528;SDS011;44322;52.968;5.816;2023-01-08T02:33:43;12.85;;;2.35;;
58528;SDS011;44322;52.968;5.816;2023-01-08T02:36:31;12.48;;;2.60;;
58528;SDS011;44322;52.968;5.816;2023-01-08T02:41:28;12.52;;;2.72;;
58528;SDS011;44322;52.968;5.816;2023-01-08T02:44:00;12.73;;;2.88;;
58528;SDS011;44322;52.968;5.816;2023-01-08T02:46:28;9.73;;;2.10;;
58528;SDS011;44322;52.968;5.816;2023-01-08T02:48:59;11.13;;;2.42;;
58528;SDS011;44322;52.968;5.816;2023-01-08T02:51:33;11.10;;;1.98;;
58528;SDS011;44322;52.968;5.816;2023-01-08T02:54:01;10.68;;;2.30;;
58528;SDS011;44322;52.968;5.816;2023-01-08T02:56:30;12.82;;;2.38;;
58528;SDS011;44322;52.968;5.816;2023-01-08T02:58:58;7.28;;;2.00;;
58528;SDS011;44322;52.968;5.816;2023-01-08T03:01:25;8.27;;;2.08;;
58528;SDS011;44322;52.968;5.816;2023-01-08T03:03:52;10.95;;;2.10;;
58528;SDS011;44322;52.968;5.816;2023-01-08T03:06:21;9.73;;;1.60;;
58528;SDS011;44322;52.968;5.816;2023-01-08T03:08:48;12.48;;;1.95;;
58528;SDS011;44322;52.968;5.816;2023-01-08T03:11:16;7.60;;;1.85;;
58528;SDS011;44322;52.968;5.816;2023-01-08T03:16:25;9.57;;;1.98;;
58528;SDS011;44322;52.968;5.816;2023-01-08T03:18:57;9.35;;;2.35;;
58528;SDS011;44322;52.968;5.816;2023-01-08T03:21:25;11.65;;;2.22;;
58528;SDS011;44322;52.968;5.816;2023-01-08T03:23:51;9.65;;;1.95;;
58528;SDS011;44322;52.968;5.816;2023-01-08T03:26:19;8.05;;;1.83;;
58528;SDS011;44322;52.968;5.816;2023-01-08T03:28:47;10.90;;;2.35;;
58528;SDS011;44322;52.968;5.816;2023-01-08T03:31:16;9.45;;;2.65;;
58528;SDS011;44322;52.968;5.816;2023-01-08T03:33:42;8.45;;;2.38;;
58528;SDS011;44322;52.968;5.816;2023-01-08T03:36:10;10.55;;;2.33;;
58528;SDS011;44322;52.968;5.816;2023-01-08T03:38:39;6.32;;;2.40;;
58528;SDS011;44322;52.968;5.816;2023-01-08T03:41:10;9.50;;;2.65;;
58528;SDS011;44322;52.968;5.816;2023-01-08T03:43:38;6.03;;;2.92;;
58528;SDS011;44322;52.968;5.816;2023-01-08T03:46:06;6.10;;;2.40;;
58528;SDS011;44322;52.968;5.816;2023-01-08T03:48:34;7.05;;;2.58;;
58528;SDS011;44322;52.968;5.816;2023-01-08T03:51:00;7.20;;;2.50;;
58528;SDS011;44322;52.968;5.816;2023-01-08T03:53:26;7.40;;;2.45;;
58528;SDS011;44322;52.968;5.816;2023-01-08T03:55:52;5.80;;;2.40;;
58528;SDS011;44322;52.968;5.816;2023-01-08T03:58:18;5.65;;;3.00;;
58528;SDS011;44322;52.968;5.816;2023-01-08T04:00:43;5.63;;;2.30;;
58528;SDS011;44322;52.968;5.816;2023-01-08T04:03:09;9.00;;;2.58;;
58528;SDS011;44322;52.968;5.816;2023-01-08T04:05:34;4.03;;;2.20;;
58528;SDS011;44322;52.968;5.816;2023-01-08T04:08:00;7.45;;;2.60;;
58528;SDS011;44322;52.968;5.816;2023-01-08T04:10:26;7.15;;;2.53;;
58528;SDS011;44322;52.968;5.816;2023-01-08T04:12:51;6.53;;;2.70;;
58528;SDS011;44322;52.968;5.816;2023-01-08T04:15:17;8.77;;;2.58;;
58528;SDS011;44322;52.968;5.816;2023-01-08T04:17:42;6.07;;;2.30;;
58528;SDS011;44322;52.968;5.816;2023-01-08T04:20:08;9.05;;;2.78;;
58528;SDS011;44322;52.968;5.816;2023-01-08T04:22:34;5.07;;;2.45;;
58528;SDS011;44322;52.968;5.816;2023-01-08T04:25:00;6.28;;;1.98;;
58528;SDS011;44322;52.968;5.816;2023-01-08T04:27:25;4.85;;;2.13;;
58528;SDS011;44322;52.968;5.816;2023-01-08T04:29:51;6.80;;;2.65;;
58528;SDS011;44322;52.968;5.816;2023-01-08T04:32:17;3.88;;;2.00;;
58528;SDS011;44322;52.968;5.816;2023-01-08T04:34:43;5.38;;;2.17;;
58528;SDS011;44322;52.968;5.816;2023-01-08T04:37:08;6.93;;;2.30;;
58528;SDS011;44322;52.968;5.816;2023-01-08T04:39:34;6.18;;;2.67;;
58528;SDS011;44322;52.968;5.816;2023-01-08T04:41:59;5.10;;;2.17;;
58528;SDS011;44322;52.968;5.816;2023-01-08T04:44:25;4.68;;;2.13;;
58528;SDS011;44322;52.968;5.816;2023-01-08T04:46:51;4.00;;;2.38;;
58528;SDS011;44322;52.968;5.816;2023-01-08T04:49:16;5.05;;;2.40;;
58528;SDS011;44322;52.968;5.816;2023-01-08T04:51:42;11.30;;;2.67;;
58528;SDS011;44322;52.968;5.816;2023-01-08T04:54:07;6.28;;;2.42;;
58528;SDS011;44322;52.968;5.816;2023-01-08T04:56:33;6.53;;;2.22;;
58528;SDS011;44322;52.968;5.816;2023-01-08T04:58:59;3.83;;;1.83;;
58528;SDS011;44322;52.968;5.816;2023-01-08T05:01:25;4.13;;;1.95;;
58528;SDS011;44322;52.968;5.816;2023-01-08T05:04:01;4.35;;;1.92;;
58528;SDS011;44322;52.968;5.816;2023-01-08T05:06:28;7.32;;;2.42;;
58528;SDS011;44322;52.968;5.816;2023-01-08T05:08:55;4.88;;;1.60;;
58528;SDS011;44322;52.968;5.816;2023-01-08T05:11:21;4.60;;;2.20;;
58528;SDS011;44322;52.968;5.816;2023-01-08T05:13:48;5.25;;;1.90;;
58528;SDS011;44322;52.968;5.816;2023-01-08T05:16:14;4.43;;;1.75;;
58528;SDS011;44322;52.968;5.816;2023-01-08T05:18:40;3.70;;;2.00;;
58528;SDS011;44322;52.968;5.816;2023-01-08T05:21:06;2.83;;;1.73;;
58528;SDS011;44322;52.968;5.816;2023-01-08T05:23:32;5.25;;;1.80;;
58528;SDS011;44322;52.968;5.816;2023-01-08T05:26:01;6.20;;;1.70;;
58528;SDS011;44322;52.968;5.816;2023-01-08T05:28:28;4.25;;;1.58;;
58528;SDS011;44322;52.968;5.816;2023-01-08T05:30:55;5.10;;;1.67;;
58528;SDS011;44322;52.968;5.816;2023-01-08T05:33:21;4.53;;;1.63;;
58528;SDS011;44322;52.968;5.816;2023-01-08T05:35:47;7.57;;;1.67;;
58528;SDS011;44322;52.968;5.816;2023-01-08T05:38:12;5.50;;;1.60;;
58528;SDS011;44322;52.968;5.816;2023-01-08T05:40:38;4.18;;;1.67;;
58528;SDS011;44322;52.968;5.816;2023-01-08T05:43:05;5.05;;;1.70;;
58528;SDS011;44322;52.968;5.816;2023-01-08T05:45:31;6.18;;;1.45;;
58528;SDS011;44322;52.968;5.816;2023-01-08T05:47:57;5.32;;;1.52;;
58528;SDS011;44322;52.968;5.816;2023-01-08T05:50:22;4.00;;;1.48;;
58528;SDS011;44322;52.968;5.816;2023-01-08T05:52:48;5.40;;;1.52;;
58528;SDS011;44322;52.968;5.816;2023-01-08T05:55:14;3.65;;;1.60;;
58528;SDS011;44322;52.968;5.816;2023-01-08T05:57:39;6.53;;;1.70;;
58528;SDS011;44322;52.968;5.816;2023-01-08T06:00:06;6.82;;;1.98;;
58528;SDS011;44322;52.968;5.816;2023-01-08T06:02:36;8.40;;;1.80;;
58528;SDS011;44322;52.968;5.816;2023-01-08T06:05:02;7.53;;;1.70;;
58528;SDS011;44322;52.968;5.816;2023-01-08T06:07:28;7.88;;;1.70;;
58528;SDS011;44322;52.968;5.816;2023-01-08T06:09:54;5.72;;;1.50;;
58528;SDS011;44322;52.968;5.816;2023-01-08T06:12:20;6.75;;;1.45;;
58528;SDS011;44322;52.968;5.816;2023-01-08T06:14:45;5.43;;;1.38;;
58528;SDS011;44322;52.968;5.816;2023-01-08T06:17:11;9.07;;;1.60;;
58528;SDS011;44322;52.968;5.816;2023-01-08T06:19:36;8.20;;;1.80;;
58528;SDS011;44322;52.968;5.816;2023-01-08T06:22:03;10.43;;;1.63;;
58528;SDS011;44322;52.968;5.816;2023-01-08T06:24:30;7.30;;;1.70;;
58528;SDS011;44322;52.968;5.816;2023-01-08T06:26:55;6.50;;;1.60;;
58528;SDS011;44322;52.968;5.816;2023-01-08T06:29:21;11.27;;;1.55;;
58528;SDS011;44322;52.968;5.816;2023-01-08T06:31:46;4.93;;;1.67;;
58528;SDS011;44322;52.968;5.816;2023-01-08T06:34:12;4.03;;;1.73;;
58528;SDS011;44322;52.968;5.816;2023-01-08T06:36:38;7.07;;;1.80;;
58528;SDS011;44322;52.968;5.816;2023-01-08T06:39:04;5.32;;;1.65;;
58528;SDS011;44322;52.968;5.816;2023-01-08T06:41:30;6.65;;;1.90;;
58528;SDS011;44322;52.968;5.816;2023-01-08T06:43:56;6.15;;;1.60;;
58528;SDS011;44322;52.968;5.816;2023-01-08T06:46:21;11.00;;;2.38;;
58528;SDS011;44322;52.968;5.816;2023-01-08T06:48:47;3.03;;;1.38;;
58528;SDS011;44322;52.968;5.816;2023-01-08T06:51:13;6.18;;;1.90;;
58528;SDS011;44322;52.968;5.816;2023-01-08T06:53:38;4.88;;;2.05;;
58528;SDS011;44322;52.968;5.816;2023-01-08T06:56:04;4.32;;;1.92;;
58528;SDS011;44322;52.968;5.816;2023-01-08T06:58:31;3.83;;;1.98;;
58528;SDS011;44322;52.968;5.816;2023-01-08T07:00:57;6.05;;;2.20;;
58528;SDS011;44322;52.968;5.816;2023-01-08T07:03:23;4.40;;;2.10;;
58528;SDS011;44322;52.968;5.816;2023-01-08T07:05:49;6.53;;;2.50;;
58528;SDS011;44322;52.968;5.816;2023-01-08T07:08:15;6.57;;;2.58;;
58528;SDS011;44322;52.968;5.816;2023-01-08T07:10:41;6.75;;;2.80;;
58528;SDS011;44322;52.968;5.816;2023-01-08T07:13:07;7.18;;;2.95;;
58528;SDS011;44322;52.968;5.816;2023-01-08T07:15:36;9.23;;;3.70;;
58528;SDS011;44322;52.968;5.816;2023-01-08T07:18:05;7.45;;;3.67;;
58528;SDS011;44322;52.968;5.816;2023-01-08T07:20:32;5.78;;;3.38;;
58528;SDS011;44322;52.968;5.816;2023-01-08T07:23:05;9.05;;;3.40;;
58528;SDS011;44322;52.968;5.816;2023-01-08T07:25:33;6.30;;;3.20;;
58528;SDS011;44322;52.968;5.816;2023-01-08T07:27:58;7.65;;;4.03;;
58528;SDS011;44322;52.968;5.816;2023-01-08T07:30:24;8.73;;;4.03;;
58528;SDS011;44322;52.968;5.816;2023-01-08T07:32:50;10.32;;;6.30;;
58528;SDS011;44322;52.968;5.816;2023-01-08T07:35:16;9.02;;;4.63;;
58528;SDS011;44322;52.968;5.816;2023-01-08T07:37:42;6.43;;;4.32;;
58528;SDS011;44322;52.968;5.816;2023-01-08T07:40:08;6.88;;;3.72;;
58528;SDS011;44322;52.968;5.816;2023-01-08T07:42:35;6.65;;;3.80;;
58528;SDS011;44322;52.968;5.816;2023-01-08T07:45:01;8.13;;;3.85;;
58528;SDS011;44322;52.968;5.816;2023-01-08T07:47:27;9.95;;;4.15;;
58528;SDS011;44322;52.968;5.816;2023-01-08T07:49:52;13.35;;;4.28;;
58528;SDS011;44322;52.968;5.816;2023-01-08T07:52:18;6.80;;;3.67;;
58528;SDS011;44322;52.968;5.816;2023-01-08T07:54:43;10.00;;;3.95;;
58528;SDS011;44322;52.968;5.816;2023-01-08T07:57:09;8.95;;;3.42;;
58528;SDS011;44322;52.968;5.816;2023-01-08T07:59:35;5.90;;;2.80;;
58528;SDS011;44322;52.968;5.816;2023-01-08T08:02:00;8.82;;;3.30;;
58528;SDS011;44322;52.968;5.816;2023-01-08T08:04:26;5.47;;;2.92;;
58528;SDS011;44322;52.968;5.816;2023-01-08T08:06:52;8.50;;;3.17;;
58528;SDS011;44322;52.968;5.816;2023-01-08T08:09:18;8.38;;;2.72;;
58528;SDS011;44322;52.968;5.816;2023-01-08T08:11:44;7.53;;;2.88;;
58528;SDS011;44322;52.968;5.816;2023-01-08T08:14:10;7.32;;;2.80;;
58528;SDS011;44322;52.968;5.816;2023-01-08T08:16:35;8.40;;;2.83;;
58528;SDS011;44322;52.968;5.816;2023-01-08T08:19:01;7.07;;;2.60;;
58528;SDS011;44322;52.968;5.816;2023-01-08T08:21:27;10.35;;;2.78;;
58528;SDS011;44322;52.968;5.816;2023-01-08T08:23:54;7.45;;;2.20;;
58528;SDS011;44322;52.968;5.816;2023-01-08T08:26:20;6.47;;;2.10;;
58528;SDS011;44322;52.968;5.816;2023-01-08T08:28:46;8.07;;;2.40;;
58528;SDS011;44322;52.968;5.816;2023-01-08T08:31:11;6.20;;;2.28;;
58528;SDS011;44322;52.968;5.816;2023-01-08T08:33:37;9.85;;;2.17;;
58528;SDS011;44322;52.968;5.816;2023-01-08T08:36:03;9.68;;;2.42;;
58528;SDS011;44322;52.968;5.816;2023-01-08T08:38:29;7.43;;;2.10;;
58528;SDS011;44322;52.968;5.816;2023-01-08T08:40:54;9.05;;;2.30;;
58528;SDS011;44322;52.968;5.816;2023-01-08T08:43:20;6.25;;;2.08;;
58528;SDS011;44322;52.968;5.816;2023-01-08T08:45:45;10.70;;;2.65;;
58528;SDS011;44322;52.968;5.816;2023-01-08T08:48:11;11.50;;;2.20;;
58528;SDS011;44322;52.968;5.816;2023-01-08T08:50:37;5.20;;;2.00;;
58528;SDS011;44322;52.968;5.816;2023-01-08T08:53:03;7.75;;;2.03;;
58528;SDS011;44322;52.968;5.816;2023-01-08T08:55:30;9.10;;;2.45;;
58528;SDS011;44322;52.968;5.816;2023-01-08T08:58:03;6.60;;;2.22;;
58528;SDS011;44322;52.968;5.816;2023-01-08T09:00:30;8.50;;;2.45;;
58528;SDS011;44322;52.968;5.816;2023-01-08T09:02:56;8.35;;;2.47;;
58528;SDS011;44322;52.968;5.816;2023-01-08T09:05:21;7.75;;;2.05;;
58528;SDS011;44322;52.968;5.816;2023-01-08T09:07:47;6.15;;;2.40;;
58528;SDS011;44322;52.968;5.816;2023-01-08T09:10:12;7.43;;;2.55;;
58528;SDS011;44322;52.968;5.816;2023-01-08T09:12:38;6.00;;;2.30;;
58528;SDS011;44322;52.968;5.816;2023-01-08T09:15:04;10.25;;;2.65;;
58528;SDS011;44322;52.968;5.816;2023-01-08T09:17:30;5.43;;;2.00;;
58528;SDS011;44322;52.968;5.816;2023-01-08T09:19:55;5.00;;;2.50;;
58528;SDS011;44322;52.968;5.816;2023-01-08T09:22:21;9.02;;;2.58;;
58528;SDS011;44322;52.968;5.816;2023-01-08T09:24:46;9.50;;;2.35;;
58528;SDS011;44322;52.968;5.816;2023-01-08T09:27:12;8.18;;;2.53;;
58528;SDS011;44322;52.968;5.816;2023-01-08T09:29:38;7.60;;;2.55;;
58528;SDS011;44322;52.968;5.816;2023-01-08T09:32:04;9.55;;;2.22;;
58528;SDS011;44322;52.968;5.816;2023-01-08T09:34:31;9.05;;;2.35;;
58528;SDS011;44322;52.968;5.816;2023-01-08T09:36:58;9.38;;;2.35;;
58528;SDS011;44322;52.968;5.816;2023-01-08T09:39:23;8.48;;;2.53;;
58528;SDS011;44322;52.968;5.816;2023-01-08T09:41:49;8.63;;;2.83;;
58528;SDS011;44322;52.968;5.816;2023-01-08T09:44:20;7.70;;;2.63;;
58528;SDS011;44322;52.968;5.816;2023-01-08T09:46:48;9.13;;;3.55;;
58528;SDS011;44322;52.968;5.816;2023-01-08T09:49:16;8.02;;;3.60;;
58528;SDS011;44322;52.968;5.816;2023-01-08T09:51:47;30.00;;;16.15;;
58528;SDS011;44322;52.968;5.816;2023-01-08T09:54:16;9.63;;;4.38;;
58528;SDS011;44322;52.968;5.816;2023-01-08T09:56:53;8.25;;;2.53;;
58528;SDS011;44322;52.968;5.816;2023-01-08T09:59:20;10.50;;;2.05;;
58528;SDS011;44322;52.968;5.816;2023-01-08T10:01:53;10.05;;;2.75;;
58528;SDS011;44322;52.968;5.816;2023-01-08T10:04:22;6.38;;;2.10;;
58528;SDS011;44322;52.968;5.816;2023-01-08T10:06:52;6.75;;;2.33;;
58528;SDS011;44322;52.968;5.816;2023-01-08T10:09:23;9.35;;;3.80;;
58528;SDS011;44322;52.968;5.816;2023-01-08T10:11:56;9.23;;;3.17;;
58528;SDS011;44322;52.968;5.816;2023-01-08T10:14:27;7.25;;;2.50;;
58528;SDS011;44322;52.968;5.816;2023-01-08T10:19:40;9.50;;;2.05;;
58528;SDS011;44322;52.968;5.816;2023-01-08T10:22:21;7.63;;;2.65;;
58528;SDS011;44322;52.968;5.816;2023-01-08T10:24:48;9.98;;;2.45;;
58528;SDS011;44322;52.968;5.816;2023-01-08T10:27:19;10.60;;;1.85;;
58528;SDS011;44322;52.968;5.816;2023-01-08T10:29:52;9.35;;;1.95;;
58528;SDS011;44322;52.968;5.816;2023-01-08T10:32:32;9.18;;;2.17;;
58528;SDS011;44322;52.968;5.816;2023-01-08T10:35:03;8.48;;;2.50;;
58528;SDS011;44322;52.968;5.816;2023-01-08T10:37:35;11.75;;;2.17;;
58528;SDS011;44322;52.968;5.816;2023-01-08T10:40:13;8.30;;;2.28;;
58528;SDS011;44322;52.968;5.816;2023-01-08T10:42:57;11.98;;;2.40;;
58528;SDS011;44322;52.968;5.816;2023-01-08T10:45:33;13.68;;;2.47;;
58528;SDS011;44322;52.968;5.816;2023-01-08T10:48:03;8.45;;;1.90;;
58528;SDS011;44322;52.968;5.816;2023-01-08T10:50:39;10.27;;;2.30;;
58528;SDS011;44322;52.968;5.816;2023-01-08T10:58:51;9.38;;;2.30;;
58528;SDS011;44322;52.968;5.816;2023-01-08T11:01:27;10.55;;;2.55;;
58528;SDS011;44322;52.968;5.816;2023-01-08T11:04:00;7.93;;;2.00;;
58528;SDS011;44322;52.968;5.816;2023-01-08T11:06:53;8.80;;;2.15;;
58528;SDS011;44322;52.968;5.816;2023-01-08T11:09:27;8.25;;;2.03;;
58528;SDS011;44322;52.968;5.816;2023-01-08T11:12:00;11.85;;;2.17;;
58528;SDS011;44322;52.968;5.816;2023-01-08T11:14:43;7.30;;;2.00;;
58528;SDS011;44322;52.968;5.816;2023-01-08T11:17:10;10.18;;;2.70;;
58528;SDS011;44322;52.968;5.816;2023-01-08T11:19:54;11.35;;;2.20;;
58528;SDS011;44322;52.968;5.816;2023-01-08T11:22:42;9.27;;;2.50;;
58528;SDS011;44322;52.968;5.816;2023-01-08T11:25:20;9.82;;;2.17;;
58528;SDS011;44322;52.968;5.816;2023-01-08T11:27:51;7.38;;;2.47;;
58528;SDS011;44322;52.968;5.816;2023-01-08T11:30:21;7.55;;;2.70;;
58528;SDS011;44322;52.968;5.816;2023-01-08T11:33:01;10.82;;;2.80;;
58528;SDS011;44322;52.968;5.816;2023-01-08T11:35:41;8.95;;;2.97;;
58528;SDS011;44322;52.968;5.816;2023-01-08T11:38:10;11.43;;;2.53;;
58528;SDS011;44322;52.968;5.816;2023-01-08T11:40:42;10.65;;;2.58;;
58528;SDS011;44322;52.968;5.816;2023-01-08T11:54:56;8.57;;;2.58;;
58528;SDS011;44322;52.968;5.816;2023-01-08T12:06:15;10.32;;;2.80;;
58528;SDS011;44322;52.968;5.816;2023-01-08T12:12:01;12.98;;;3.80;;
58528;SDS011;44322;52.968;5.816;2023-01-08T12:36:30;8.25;;;2.95;;
58528;SDS011;44322;52.968;5.816;2023-01-08T12:39:21;10.75;;;3.33;;
58528;SDS011;44322;52.968;5.816;2023-01-08T12:45:12;9.43;;;2.88;;
58528;SDS011;44322;52.968;5.816;2023-01-08T12:51:49;7.75;;;3.30;;
58528;SDS011;44322;52.968;5.816;2023-01-08T12:57:13;8.70;;;2.67;;
58528;SDS011;44322;52.968;5.816;2023-01-08T13:02:37;11.38;;;3.40;;
58528;SDS011;44322;52.968;5.816;2023-01-08T13:07:50;11.00;;;3.00;;
58528;SDS011;44322;52.968;5.816;2023-01-08T13:10:36;12.57;;;3.40;;
58528;SDS011;44322;52.968;5.816;2023-01-08T13:13:30;8.80;;;3.13;;
58528;SDS011;44322;52.968;5.816;2023-01-08T13:16:19;8.88;;;2.70;;
58528;SDS011;44322;52.968;5.816;2023-01-08T13:19:00;8.00;;;2.95;;
58528;SDS011;44322;52.968;5.816;2023-01-08T13:22:33;9.05;;;2.70;;
58528;SDS011;44322;52.968;5.816;2023-01-08T13:27:52;15.73;;;8.73;;
58528;SDS011;44322;52.968;5.816;2023-01-08T13:30:38;18.98;;;8.68;;
58528;SDS011;44322;52.968;5.816;2023-01-08T13:41:55;63.78;;;30.17;;
58528;SDS011;44322;52.968;5.816;2023-01-08T13:44:51;49.42;;;24.77;;
58528;SDS011;44322;52.968;5.816;2023-01-08T13:47:40;15.38;;;8.35;;
58528;SDS011;44322;52.968;5.816;2023-01-08T13:50:23;8.48;;;3.35;;
58528;SDS011;44322;52.968;5.816;2023-01-08T13:57:41;9.48;;;5.57;;
58528;SDS011;44322;52.968;5.816;2023-01-08T14:00:17;8.40;;;5.25;;
58528;SDS011;44322;52.968;5.816;2023-01-08T14:07:18;6.38;;;3.15;;
58528;SDS011;44322;52.968;5.816;2023-01-08T14:09:47;8.52;;;4.05;;
58528;SDS011;44322;52.968;5.816;2023-01-08T14:12:46;6.00;;;3.58;;
58528;SDS011;44322;52.968;5.816;2023-01-08T14:15:39;5.88;;;3.35;;
58528;SDS011;44322;52.968;5.816;2023-01-08T14:18:49;8.57;;;2.85;;
58528;SDS011;44322;52.968;5.816;2023-01-08T14:21:39;5.95;;;2.88;;
58528;SDS011;44322;52.968;5.816;2023-01-08T14:24:34;6.72;;;3.20;;
58528;SDS011;44322;52.968;5.816;2023-01-08T14:27:28;10.18;;;4.40;;
58528;SDS011;44322;52.968;5.816;2023-01-08T14:30:15;6.30;;;2.90;;
58528;SDS011;44322;52.968;5.816;2023-01-08T14:36:24;9.18;;;3.15;;
58528;SDS011;44322;52.968;5.816;2023-01-08T14:38:53;6.07;;;2.78;;
58528;SDS011;44322;52.968;5.816;2023-01-08T14:41:48;8.98;;;3.20;;
58528;SDS011;44322;52.968;5.816;2023-01-08T14:44:44;8.13;;;3.58;;
58528;SDS011;44322;52.968;5.816;2023-01-08T14:47:21;8.95;;;5.55;;
58528;SDS011;44322;52.968;5.816;2023-01-08T14:50:03;8.63;;;4.07;;
58528;SDS011;44322;52.968;5.816;2023-01-08T14:53:16;9.90;;;3.65;;
58528;SDS011;44322;52.968;5.816;2023-01-08T14:56:17;7.78;;;2.90;;
58528;SDS011;44322;52.968;5.816;2023-01-08T14:59:23;4.15;;;2.47;;
58528;SDS011;44322;52.968;5.816;2023-01-08T15:01:56;5.72;;;2.38;;
58528;SDS011;44322;52.968;5.816;2023-01-08T15:05:46;5.13;;;2.70;;
58528;SDS011;44322;52.968;5.816;2023-01-08T15:08:40;5.93;;;2.67;;
58528;SDS011;44322;52.968;5.816;2023-01-08T15:13:57;5.75;;;2.30;;
58528;SDS011;44322;52.968;5.816;2023-01-08T15:16:34;7.38;;;2.40;;
58528;SDS011;44322;52.968;5.816;2023-01-08T15:19:18;5.60;;;2.30;;
58528;SDS011;44322;52.968;5.816;2023-01-08T15:21:53;7.05;;;2.25;;
58528;SDS011;44322;52.968;5.816;2023-01-08T15:24:29;5.50;;;2.08;;
58528;SDS011;44322;52.968;5.816;2023-01-08T15:27:16;5.38;;;2.53;;
58528;SDS011;44322;52.968;5.816;2023-01-08T15:29:50;6.25;;;2.97;;
58528;SDS011;44322;52.968;5.816;2023-01-08T15:32:31;6.78;;;4.30;;
58528;SDS011;44322;52.968;5.816;2023-01-08T15:35:12;5.68;;;2.95;;
58528;SDS011;44322;52.968;5.816;2023-01-08T15:37:51;5.45;;;3.25;;
58528;SDS011;44322;52.968;5.816;2023-01-08T15:40:17;7.40;;;4.63;;
58528;SDS011;44322;52.968;5.816;2023-01-08T15:42:46;6.70;;;4.22;;
58528;SDS011;44322;52.968;5.816;2023-01-08T15:45:34;8.18;;;3.22;;
58528;SDS011;44322;52.968;5.816;2023-01-08T15:48:06;5.32;;;3.60;;
58528;SDS011;44322;52.968;5.816;2023-01-08T15:50:57;9.35;;;4.32;;
58528;SDS011;44322;52.968;5.816;2023-01-08T15:53:33;5.30;;;3.33;;
58528;SDS011;44322;52.968;5.816;2023-01-08T15:56:02;4.78;;;2.50;;
58528;SDS011;44322;52.968;5.816;2023-01-08T15:58:28;4.03;;;2.47;;
58528;SDS011;44322;52.968;5.816;2023-01-08T16:00:58;5.05;;;2.33;;
58528;SDS011;44322;52.968;5.816;2023-01-08T16:03:24;6.15;;;2.35;;
58528;SDS011;44322;52.968;5.816;2023-01-08T16:05:50;4.95;;;2.80;;
58528;SDS011;44322;52.968;5.816;2023-01-08T16:08:29;6.35;;;2.85;;
58528;SDS011;44322;52.968;5.816;2023-01-08T16:11:05;4.38;;;3.05;;
58528;SDS011;44322;52.968;5.816;2023-01-08T16:13:30;5.88;;;2.70;;
58528;SDS011;44322;52.968;5.816;2023-01-08T16:15:59;5.65;;;3.22;;
58528;SDS011;44322;52.968;5.816;2023-01-08T16:18:34;5.63;;;2.63;;
58528;SDS011;44322;52.968;5.816;2023-01-08T16:21:06;4.63;;;2.40;;
58528;SDS011;44322;52.968;5.816;2023-01-08T16:23:48;4.95;;;2.50;;
58528;SDS011;44322;52.968;5.816;2023-01-08T16:26:25;7.05;;;2.60;;
58528;SDS011;44322;52.968;5.816;2023-01-08T16:28:51;5.55;;;2.50;;
58528;SDS011;44322;52.968;5.816;2023-01-08T16:31:17;4.88;;;2.70;;
58528;SDS011;44322;52.968;5.816;2023-01-08T16:33:42;5.88;;;2.42;;
58528;SDS011;44322;52.968;5.816;2023-01-08T16:36:08;5.63;;;2.20;;
58528;SDS011;44322;52.968;5.816;2023-01-08T16:38:34;4.25;;;2.20;;
58528;SDS011;44322;52.968;5.816;2023-01-08T16:41:00;5.18;;;2.03;;
58528;SDS011;44322;52.968;5.816;2023-01-08T16:43:27;5.22;;;2.30;;
58528;SDS011;44322;52.968;5.816;2023-01-08T16:45:54;4.38;;;1.90;;
58528;SDS011;44322;52.968;5.816;2023-01-08T16:48:23;5.32;;;2.35;;
58528;SDS011;44322;52.968;5.816;2023-01-08T16:50:49;4.70;;;2.35;;
58528;SDS011;44322;52.968;5.816;2023-01-08T16:53:18;5.22;;;2.50;;
58528;SDS011;44322;52.968;5.816;2023-01-08T16:55:49;5.20;;;2.53;;
58528;SDS011;44322;52.968;5.816;2023-01-08T16:58:15;6.25;;;2.85;;